createdAt,value
2022-11-22T00:01:20.300Z,39.40
2022-11-22T00:03:48.590Z,39.38
2022-11-22T00:06:18.241Z,39.80
2022-11-22T00:08:46.505Z,39.83
2022-11-22T00:11:14.693Z,39.83
2022-11-22T00:13:43.024Z,39.52
2022-11-22T00:16:11.385Z,39.29
2022-11-22T00:18:39.575Z,39.38
2022-11-22T00:21:08.149Z,39.24
2022-11-22T00:23:37.898Z,39.50
2022-11-22T00:26:07.169Z,39.98
2022-11-22T00:28:35.399Z,39.59
2022-11-22T00:31:03.631Z,39.51
2022-11-22T00:33:31.865Z,39.30
2022-11-22T00:36:00.102Z,39.33
2022-11-22T00:38:28.408Z,39.61
2022-11-22T00:40:58.149Z,39.67
2022-11-22T00:43:26.457Z,39.19
2022-11-22T00:45:54.694Z,39.34
2022-11-22T00:48:22.954Z,39.90
2022-11-22T00:50:51.333Z,39.25
2022-11-22T00:53:19.553Z,39.21
2022-11-22T00:55:47.801Z,39.33
2022-11-22T00:58:17.440Z,39.58
2022-11-22T01:00:45.700Z,39.34
2022-11-22T01:03:14.411Z,39.40
2022-11-22T01:05:42.693Z,39.01
2022-11-22T01:08:11.085Z,39.03
2022-11-22T01:10:39.307Z,39.28
2022-11-22T01:13:10.329Z,38.97
2022-11-22T01:15:40.066Z,39.02
2022-11-22T01:18:08.358Z,39.05
2022-11-22T01:20:36.580Z,39.15
2022-11-22T01:23:04.929Z,39.19
2022-11-22T01:25:33.287Z,39.28
2022-11-22T01:28:01.510Z,39.29
2022-11-22T01:30:29.878Z,39.29
2022-11-22T01:32:59.638Z,39.26
2022-11-22T01:35:27.885Z,39.57
2022-11-22T01:37:56.071Z,39.12
2022-11-22T01:40:24.367Z,39.23
2022-11-22T01:42:53.885Z,39.30
2022-11-22T01:45:55.714Z,39.24
2022-11-22T01:48:52.133Z,39.47
2022-11-22T01:51:22.869Z,39.43
2022-11-22T01:53:51.288Z,39.29
2022-11-22T01:56:19.510Z,39.48
2022-11-22T01:58:49.358Z,39.03
2022-11-22T02:01:17.737Z,39.21
2022-11-22T02:03:48.192Z,39.18
2022-11-22T02:06:16.567Z,39.69
2022-11-22T02:08:48.831Z,39.37
2022-11-22T02:11:17.107Z,39.23
2022-11-22T02:13:45.380Z,39.32
2022-11-22T02:16:13.705Z,39.02
2022-11-22T02:18:41.950Z,39.39
2022-11-22T02:21:11.825Z,39.40
2022-11-22T02:23:45.992Z,39.07
2022-11-22T02:26:16.261Z,39.08
2022-11-22T02:28:44.545Z,39.41
2022-11-22T02:31:40.274Z,39.28
2022-11-22T02:34:08.657Z,39.52
2022-11-22T02:36:39.879Z,39.02
2022-11-22T02:39:08.219Z,39.11
2022-11-22T02:41:38.072Z,39.12
2022-11-22T02:44:07.646Z,39.24
2022-11-22T02:46:35.850Z,39.23
2022-11-22T02:49:04.135Z,39.32
2022-11-22T02:51:32.533Z,39.23
2022-11-22T02:54:00.858Z,39.21
2022-11-22T02:56:29.087Z,39.40
2022-11-22T02:58:58.767Z,39.25
2022-11-22T03:01:26.994Z,39.53
2022-11-22T03:03:55.339Z,39.06
2022-11-22T03:06:23.545Z,38.97
2022-11-22T03:08:56.137Z,39.20
2022-11-22T03:11:25.036Z,39.05
2022-11-22T03:13:53.305Z,38.93
2022-11-22T03:16:23.195Z,39.53
2022-11-22T03:18:51.561Z,39.44
2022-11-22T03:21:19.781Z,39.52
2022-11-22T03:23:48.045Z,38.99
2022-11-22T03:26:16.269Z,39.13
2022-11-22T03:28:44.550Z,39.46
2022-11-22T03:31:12.774Z,38.99
2022-11-22T03:33:42.556Z,39.56
2022-11-22T03:36:10.746Z,39.15
2022-11-22T03:38:39.001Z,39.38
2022-11-22T03:41:07.192Z,39.06
2022-11-22T03:43:35.481Z,39.37
2022-11-22T03:46:03.590Z,39.39
2022-11-22T03:48:31.973Z,39.25
2022-11-22T03:51:06.348Z,39.50
2022-11-22T03:53:34.745Z,39.19
2022-11-22T03:56:02.966Z,39.54
2022-11-22T03:58:31.396Z,38.98
2022-11-22T04:00:59.819Z,39.45
2022-11-22T04:03:28.345Z,38.75
2022-11-22T04:05:56.624Z,39.18
2022-11-22T04:08:26.300Z,38.96
2022-11-22T04:10:54.760Z,39.39
2022-11-22T04:13:43.206Z,39.00
2022-11-22T04:16:10.430Z,39.25
2022-11-22T04:18:38.849Z,39.24
2022-11-22T04:21:24.667Z,38.91
2022-11-22T04:24:08.234Z,39.13
2022-11-22T04:26:36.558Z,39.14
2022-11-22T04:29:10.178Z,38.89
2022-11-22T04:31:56.511Z,39.29
2022-11-22T04:34:25.225Z,39.32
2022-11-22T04:36:53.416Z,39.39
2022-11-22T04:39:23.201Z,39.20
2022-11-22T04:42:13.921Z,39.31
2022-11-22T04:44:41.240Z,39.23
2022-11-22T04:47:09.565Z,39.33
2022-11-22T04:49:37.908Z,39.33
2022-11-22T04:52:23.665Z,39.32
2022-11-22T04:54:53.461Z,39.55
2022-11-22T04:57:21.762Z,39.45
2022-11-22T04:59:50.006Z,39.51
2022-11-22T05:02:18.260Z,39.20
2022-11-22T05:04:50.652Z,39.05
2022-11-22T05:07:19.499Z,39.48
2022-11-22T05:09:47.962Z,39.20
2022-11-22T05:12:17.752Z,39.15
2022-11-22T05:14:45.996Z,39.50
2022-11-22T05:17:14.326Z,39.30
2022-11-22T05:19:48.900Z,39.44
2022-11-22T05:22:17.952Z,39.22
2022-11-22T05:24:45.352Z,39.16
2022-11-22T05:27:13.597Z,39.61
2022-11-22T05:29:43.500Z,38.86
2022-11-22T05:32:12.095Z,39.02
2022-11-22T05:34:40.370Z,39.33
2022-11-22T05:37:08.667Z,39.46
2022-11-22T05:39:36.853Z,39.55
2022-11-22T05:42:06.083Z,39.50
2022-11-22T05:44:34.302Z,38.87
2022-11-22T05:47:04.057Z,39.40
2022-11-22T05:49:33.393Z,39.28
2022-11-22T05:52:01.693Z,38.95
2022-11-22T05:54:30.077Z,39.71
2022-11-22T05:56:58.270Z,39.05
2022-11-22T05:59:26.564Z,39.58
2022-11-22T06:01:54.839Z,39.05
2022-11-22T06:04:24.674Z,39.68
2022-11-22T06:06:52.909Z,39.66
2022-11-22T06:09:21.177Z,39.52
2022-11-22T06:11:49.557Z,39.11
2022-11-22T06:14:17.901Z,39.77
2022-11-22T06:16:46.139Z,39.63
2022-11-22T06:19:14.492Z,39.83
2022-11-22T06:21:44.209Z,39.95
2022-11-22T06:24:12.644Z,39.68
2022-11-22T06:26:40.945Z,39.57
2022-11-22T06:29:09.158Z,39.83
2022-11-22T06:31:37.437Z,39.28
2022-11-22T06:34:06.513Z,39.70
2022-11-22T06:36:35.553Z,40.06
2022-11-22T06:39:33.188Z,39.49
2022-11-22T06:42:03.000Z,39.98
2022-11-22T06:44:31.275Z,39.85
2022-11-22T06:46:59.622Z,39.77
2022-11-22T06:49:28.013Z,39.78
2022-11-22T06:51:56.485Z,39.92
2022-11-22T06:54:26.312Z,39.83
2022-11-22T06:56:54.600Z,39.50
2022-11-22T06:59:22.903Z,39.60
2022-11-22T07:01:51.457Z,39.50
2022-11-22T07:04:20.824Z,39.93
2022-11-22T07:06:49.118Z,39.78
2022-11-22T07:09:17.421Z,39.82
2022-11-22T07:11:47.152Z,39.65
2022-11-22T07:14:15.409Z,39.87
2022-11-22T07:16:43.601Z,39.21
2022-11-22T07:19:11.882Z,39.84
2022-11-22T07:21:40.074Z,39.34
2022-11-22T07:24:09.823Z,39.79
2022-11-22T07:26:38.235Z,39.80
2022-11-22T07:29:07.958Z,39.74
2022-11-22T07:31:36.302Z,39.67
2022-11-22T07:34:04.602Z,39.80
2022-11-22T07:36:32.918Z,39.32
2022-11-22T07:39:01.815Z,39.30
2022-11-22T07:41:29.980Z,39.82
2022-11-22T07:43:58.592Z,39.96
2022-11-22T07:46:31.435Z,39.81
2022-11-22T07:49:00.267Z,39.97
2022-11-22T07:51:28.549Z,39.58
2022-11-22T07:53:56.896Z,39.59
2022-11-22T07:56:25.346Z,39.91
2022-11-22T07:58:54.132Z,39.56
2022-11-22T08:01:23.755Z,39.50
2022-11-22T08:03:53.655Z,39.77
2022-11-22T08:06:21.974Z,40.00
2022-11-22T08:08:50.391Z,39.97
2022-11-22T08:11:18.589Z,39.73
2022-11-22T08:13:46.889Z,40.16
2022-11-22T08:16:16.274Z,39.73
2022-11-22T08:18:47.579Z,39.78
2022-11-22T08:21:17.924Z,39.55
2022-11-22T08:23:46.479Z,40.01
2022-11-22T08:26:15.781Z,39.63
2022-11-22T08:28:44.691Z,40.08
2022-11-22T08:31:14.175Z,39.46
2022-11-22T08:33:42.716Z,39.95
2022-11-22T08:36:11.086Z,40.02
2022-11-22T08:38:40.737Z,39.73
2022-11-22T08:41:08.984Z,39.78
2022-11-22T08:43:37.356Z,39.84
2022-11-22T08:46:05.845Z,39.43
2022-11-22T08:48:34.988Z,39.69
2022-11-22T08:51:03.901Z,39.54
2022-11-22T08:53:33.181Z,39.62
2022-11-22T08:56:03.570Z,40.15
2022-11-22T08:58:32.326Z,39.93
2022-11-22T09:01:05.495Z,40.22
2022-11-22T09:03:33.896Z,40.35
2022-11-22T09:08:58.619Z,40.26
2022-11-22T09:11:38.903Z,40.26
2022-11-22T09:14:07.386Z,40.29
2022-11-22T09:16:35.664Z,40.79
2022-11-22T09:19:03.956Z,40.64
2022-11-22T09:21:32.266Z,40.05
2022-11-22T09:24:00.544Z,40.65
2022-11-22T09:26:28.797Z,40.40
2022-11-22T09:28:59.272Z,40.34
2022-11-22T09:31:27.619Z,40.22
2022-11-22T09:33:56.145Z,40.50
2022-11-22T09:36:26.488Z,40.79
2022-11-22T09:38:54.825Z,40.43
2022-11-22T09:41:51.561Z,40.04
2022-11-22T09:44:24.555Z,39.91
2022-11-22T09:46:54.089Z,40.30
2022-11-22T09:49:30.038Z,40.43
2022-11-22T09:52:04.817Z,40.10
2022-11-22T09:54:38.272Z,39.95
2022-11-22T09:57:06.648Z,39.56
2022-11-22T09:59:36.870Z,39.59
2022-11-22T10:02:18.049Z,39.32
2022-11-22T10:04:48.999Z,40.30
2022-11-22T10:07:19.322Z,39.25
2022-11-22T10:09:49.477Z,39.81
2022-11-22T10:12:19.576Z,39.58
2022-11-22T10:14:53.661Z,39.81
2022-11-22T10:17:29.597Z,39.89
2022-11-22T10:20:03.224Z,39.87
2022-11-22T10:22:31.596Z,39.44
2022-11-22T10:25:00.786Z,39.89
2022-11-22T10:27:30.118Z,39.90
2022-11-22T10:30:01.516Z,39.94
2022-11-22T10:32:31.382Z,39.97
2022-11-22T10:35:10.345Z,40.44
2022-11-22T10:37:41.921Z,40.12
2022-11-22T10:40:15.292Z,40.16
2022-11-22T10:42:55.164Z,40.81
2022-11-22T10:45:27.293Z,40.44
2022-11-22T10:48:01.111Z,40.80
2022-11-22T10:50:33.616Z,40.77
2022-11-22T10:53:03.345Z,41.09
2022-11-22T10:55:43.070Z,41.21
2022-11-22T10:58:16.876Z,41.39
2022-11-22T11:00:48.451Z,41.34
2022-11-22T11:03:27.492Z,41.25
2022-11-22T11:11:35.386Z,41.64
2022-11-22T11:14:06.028Z,41.72
2022-11-22T11:16:36.974Z,41.38
2022-11-22T11:19:12.603Z,41.62
2022-11-22T11:21:40.910Z,41.50
2022-11-22T11:24:13.560Z,41.86
2022-11-22T11:26:42.809Z,41.50
2022-11-22T11:29:37.614Z,41.52
2022-11-22T11:32:13.461Z,41.67
2022-11-22T11:34:43.388Z,41.46
2022-11-22T11:37:20.516Z,41.92
2022-11-22T11:39:48.838Z,41.84
2022-11-22T11:42:25.338Z,41.30
2022-11-22T11:44:53.673Z,40.49
2022-11-22T11:47:33.559Z,40.11
2022-11-22T11:50:01.842Z,40.09
2022-11-22T11:52:31.720Z,40.42
2022-11-22T11:55:01.073Z,40.96
2022-11-22T11:57:29.974Z,40.99
2022-11-22T11:59:59.318Z,40.45
2022-11-22T12:02:31.339Z,40.75
2022-11-22T12:05:01.116Z,40.75
2022-11-22T12:07:31.122Z,40.94
2022-11-22T12:09:59.380Z,40.04
2022-11-22T12:12:39.735Z,40.01
2022-11-22T12:15:13.872Z,39.87
2022-11-22T12:17:51.273Z,39.74
2022-11-22T12:20:21.855Z,40.43
2022-11-22T12:22:57.116Z,40.39
2022-11-22T12:25:33.387Z,40.59
2022-11-22T12:28:04.777Z,40.84
2022-11-22T12:30:33.284Z,40.02
2022-11-22T12:33:04.104Z,40.08
2022-11-22T12:35:44.375Z,40.63
2022-11-22T12:38:14.350Z,40.46
2022-11-22T12:40:43.384Z,40.44
2022-11-22T12:43:15.713Z,40.39
2022-11-22T12:45:44.842Z,40.42
2022-11-22T12:48:17.847Z,40.18
2022-11-22T12:50:47.313Z,40.16
2022-11-22T12:53:16.922Z,40.22
2022-11-22T12:55:46.392Z,40.20
2022-11-22T12:58:19.892Z,40.25
2022-11-22T13:00:55.719Z,40.11
2022-11-22T13:03:28.734Z,39.90
2022-11-22T13:05:58.483Z,40.37
2022-11-22T13:08:29.261Z,40.01
2022-11-22T13:10:59.296Z,39.89
2022-11-22T13:13:29.458Z,39.95
2022-11-22T13:15:58.169Z,40.47
2022-11-22T13:18:28.832Z,40.06
2022-11-22T13:20:59.497Z,40.06
2022-11-22T13:23:36.924Z,40.12
2022-11-22T13:26:11.701Z,40.16
2022-11-22T13:28:42.890Z,40.04
2022-11-22T13:31:18.602Z,40.49
2022-11-22T13:33:56.661Z,40.08
2022-11-22T13:36:46.052Z,40.60
2022-11-22T13:39:17.811Z,40.20
2022-11-22T13:41:52.698Z,40.55
2022-11-22T13:44:46.500Z,40.44
2022-11-22T13:47:36.010Z,40.66
2022-11-22T13:50:20.773Z,40.01
2022-11-22T13:52:52.931Z,40.47
2022-11-22T13:55:29.098Z,40.65
2022-11-22T13:57:57.413Z,40.19
2022-11-22T14:00:46.463Z,39.96
2022-11-22T14:03:41.191Z,40.60
2022-11-22T14:06:31.869Z,40.22
2022-11-22T14:09:17.893Z,40.43
2022-11-22T14:11:50.730Z,40.74
2022-11-22T14:14:20.600Z,40.42
2022-11-22T14:16:53.440Z,40.14
2022-11-22T14:19:43.845Z,40.53
2022-11-22T14:22:19.812Z,40.45
2022-11-22T14:25:17.944Z,40.45
2022-11-22T14:27:50.080Z,40.11
2022-11-22T14:30:19.518Z,40.65
2022-11-22T14:32:58.076Z,40.29
2022-11-22T14:35:31.399Z,40.63
2022-11-22T14:38:06.281Z,40.26
2022-11-22T14:40:36.479Z,40.16
2022-11-22T14:43:21.733Z,40.38
2022-11-22T14:45:51.767Z,40.73
2022-11-22T14:48:21.197Z,40.45
2022-11-22T14:50:52.060Z,40.38
2022-11-22T14:53:26.384Z,40.17
2022-11-22T14:55:57.850Z,39.73
2022-11-22T14:58:28.537Z,40.16
2022-11-22T15:01:12.169Z,39.78
2022-11-22T15:09:16.476Z,39.82
2022-11-22T15:09:21.647Z,39.79
2022-11-22T15:10:24.525Z,39.43
2022-11-22T15:13:22.545Z,39.69
2022-11-22T15:59:10.150Z,39.61
2022-11-22T16:01:40.207Z,39.86
2022-11-22T16:04:21.233Z,39.80
2022-11-22T16:06:51.892Z,39.51
2022-11-22T16:09:25.033Z,39.59
2022-11-22T16:12:01.666Z,39.38
2022-11-22T16:14:46.548Z,39.21
2022-11-22T16:17:26.028Z,39.31
2022-11-22T16:20:16.309Z,39.23
2022-11-22T16:22:44.544Z,39.47
2022-11-22T16:25:24.226Z,39.87
2022-11-22T16:27:52.509Z,39.04
2022-11-22T16:30:23.628Z,39.46
2022-11-22T16:32:56.540Z,39.73
2022-11-22T16:35:30.069Z,39.31
2022-11-22T16:37:58.579Z,39.55
2022-11-22T16:40:26.776Z,39.07
2022-11-22T16:42:55.046Z,39.80
2022-11-22T16:45:23.655Z,39.82
2022-11-22T16:48:16.673Z,39.52
2022-11-22T16:50:44.496Z,39.54
2022-11-22T16:53:13.652Z,39.80
2022-11-22T16:55:42.143Z,39.42
2022-11-22T16:58:17.899Z,39.67
2022-11-22T17:00:46.262Z,39.60
2022-11-22T17:03:16.172Z,39.53
2022-11-22T17:05:46.069Z,39.88
2022-11-22T17:08:16.134Z,39.50
2022-11-22T17:10:47.432Z,39.32
2022-11-22T17:13:20.611Z,39.68
2022-11-22T17:15:49.093Z,40.15
2022-11-22T17:18:17.318Z,39.39
2022-11-22T17:20:47.079Z,39.46
2022-11-22T17:23:18.474Z,39.92
2022-11-22T17:25:46.799Z,39.96
2022-11-22T17:28:14.999Z,39.69
2022-11-22T17:30:43.308Z,39.80
2022-11-22T17:33:11.956Z,40.08
2022-11-22T17:35:40.280Z,39.96
2022-11-22T17:38:10.117Z,39.61
2022-11-22T17:40:38.525Z,39.65
2022-11-22T17:43:06.737Z,40.00
2022-11-22T17:45:40.326Z,40.03
2022-11-22T17:48:08.609Z,39.67
2022-11-22T17:50:39.538Z,39.54
2022-11-22T17:53:09.685Z,39.62
2022-11-22T17:56:08.548Z,39.72
2022-11-22T17:58:27.674Z,39.91
2022-11-22T18:01:03.597Z,40.00
2022-11-22T18:03:31.903Z,39.87
2022-11-22T18:06:00.430Z,39.95
2022-11-22T18:08:30.185Z,40.21
2022-11-22T18:10:59.792Z,40.54
2022-11-22T18:13:28.104Z,41.02
2022-11-22T18:16:01.695Z,40.88
2022-11-22T18:21:20.529Z,41.24
2022-11-22T18:23:50.191Z,41.20
2022-11-22T18:31:55.442Z,41.08
2022-11-22T18:34:23.750Z,41.10
2022-11-22T18:37:00.450Z,41.61
2022-11-22T18:39:32.132Z,41.11
2022-11-22T18:42:00.749Z,41.80
2022-11-22T18:44:29.231Z,41.82
2022-11-22T18:46:57.549Z,41.87
2022-11-22T18:49:25.779Z,41.77
2022-11-22T18:51:54.185Z,41.33
2022-11-22T18:54:22.970Z,41.95
2022-11-22T18:56:52.959Z,41.83
2022-11-22T18:59:21.242Z,41.97
2022-11-22T19:01:49.498Z,41.56
2022-11-22T19:04:17.920Z,41.94
2022-11-22T19:06:46.145Z,41.80
2022-11-22T19:09:14.432Z,41.61
2022-11-22T19:11:42.828Z,41.42
2022-11-22T19:14:12.708Z,41.92
2022-11-22T19:16:41.063Z,41.76
2022-11-22T19:19:11.508Z,41.64
2022-11-22T19:21:39.872Z,41.68
2022-11-22T19:24:08.683Z,41.99
2022-11-22T19:26:40.383Z,41.77
2022-11-22T19:29:08.857Z,42.09
2022-11-22T19:31:38.569Z,41.93
2022-11-22T19:34:07.049Z,41.61
2022-11-22T19:36:36.304Z,41.74
2022-11-22T19:39:05.560Z,41.57
2022-11-22T19:41:33.943Z,41.96
2022-11-22T19:44:02.359Z,41.96
2022-11-22T19:46:30.674Z,41.57
2022-11-22T19:49:01.681Z,41.65
2022-11-22T19:51:30.976Z,41.68
2022-11-22T19:54:00.189Z,41.98
2022-11-22T19:56:30.391Z,41.64
2022-11-22T19:58:59.767Z,41.71
2022-11-22T20:01:29.081Z,42.26
2022-11-22T20:03:58.721Z,41.76
2022-11-22T20:06:28.969Z,42.05
2022-11-22T20:09:01.658Z,42.12
2022-11-22T20:11:30.285Z,42.37
2022-11-22T20:13:58.523Z,42.15
2022-11-22T20:16:27.473Z,42.64
2022-11-22T20:18:55.757Z,42.49
2022-11-22T20:21:24.129Z,42.22
2022-11-22T20:23:53.936Z,42.40
2022-11-22T20:26:22.624Z,42.50
2022-11-22T20:28:55.733Z,42.28
2022-11-22T20:31:24.113Z,41.99
2022-11-22T20:33:52.981Z,42.30
2022-11-22T20:36:21.956Z,42.06
2022-11-22T20:38:50.179Z,42.30
2022-11-22T20:41:21.600Z,41.87
2022-11-22T20:43:50.716Z,42.33
2022-11-22T20:46:19.757Z,42.53
2022-11-22T20:48:48.242Z,42.16
2022-11-22T20:51:17.582Z,42.09
2022-11-22T20:53:46.107Z,42.47
2022-11-22T20:56:14.405Z,42.25
2022-11-22T20:58:44.208Z,42.56
2022-11-22T21:01:14.184Z,42.32
2022-11-22T21:03:42.494Z,42.57
2022-11-22T21:06:11.313Z,42.99
2022-11-22T21:08:39.621Z,42.38
2022-11-22T21:11:08.858Z,42.67
2022-11-22T21:13:37.262Z,42.30
2022-11-22T21:16:21.458Z,42.98
2022-11-22T21:18:51.736Z,42.71
2022-11-22T21:21:23.163Z,42.52
2022-11-22T21:23:51.845Z,42.87
2022-11-22T21:26:20.080Z,42.86
2022-11-22T21:28:48.509Z,42.48
2022-11-22T21:31:18.204Z,42.48
2022-11-22T21:33:46.879Z,42.53
2022-11-22T21:36:15.295Z,42.48
2022-11-22T21:38:43.563Z,42.62
2022-11-22T21:41:38.911Z,42.79
2022-11-22T21:44:02.702Z,42.75
2022-11-22T21:46:32.365Z,42.71
2022-11-22T21:49:00.731Z,42.72
2022-11-22T21:51:29.008Z,43.00
2022-11-22T21:53:58.847Z,42.85
2022-11-22T21:56:27.341Z,43.08
2022-11-22T21:58:55.908Z,42.64
2022-11-22T22:01:24.426Z,42.50
2022-11-22T22:03:54.302Z,42.89
2022-11-22T22:06:22.657Z,42.46
2022-11-22T22:08:50.953Z,42.78
2022-11-22T22:11:19.261Z,42.82
2022-11-22T22:13:47.503Z,42.52
2022-11-22T22:16:19.200Z,42.50
2022-11-22T22:18:47.785Z,42.89
2022-11-22T22:21:18.135Z,42.70
2022-11-22T22:23:46.568Z,42.99
2022-11-22T22:26:15.628Z,43.15
2022-11-22T22:28:45.130Z,42.63
2022-11-22T22:31:14.680Z,42.73
2022-11-22T22:33:43.224Z,42.85
2022-11-22T22:36:11.785Z,42.99
2022-11-22T22:38:41.909Z,43.16
2022-11-22T22:41:11.923Z,42.92
2022-11-22T22:43:41.041Z,43.00
2022-11-22T22:46:11.361Z,43.17
2022-11-22T22:48:39.800Z,42.85
2022-11-22T22:51:08.615Z,43.15
2022-11-22T22:53:36.961Z,42.80
2022-11-22T22:56:08.121Z,43.08
2022-11-22T22:58:37.179Z,42.96
2022-11-22T23:01:06.865Z,43.18
2022-11-22T23:03:36.048Z,43.15
2022-11-22T23:06:08.220Z,42.98
2022-11-22T23:08:36.629Z,43.39
2022-11-22T23:11:07.714Z,42.86
2022-11-22T23:13:36.339Z,43.44
2022-11-22T23:16:04.843Z,43.32
2022-11-22T23:18:35.686Z,43.12
2022-11-22T23:21:04.284Z,42.96
2022-11-22T23:23:32.587Z,43.21
2022-11-22T23:26:02.976Z,43.48
2022-11-22T23:28:33.755Z,43.30
2022-11-22T23:31:06.466Z,43.22
2022-11-22T23:33:34.993Z,43.24
2022-11-22T23:36:04.737Z,43.16
2022-11-22T23:38:33.004Z,43.54
2022-11-22T23:41:01.241Z,43.06
2022-11-22T23:43:29.692Z,43.19
2022-11-22T23:45:59.896Z,43.36
2022-11-22T23:48:28.327Z,43.27
2022-11-22T23:50:56.589Z,43.73
2022-11-22T23:53:24.916Z,43.65
2022-11-22T23:55:53.077Z,43.56
2022-11-22T23:58:21.255Z,43.09
